sensor_id;sensor_type;location;lat;lon;timestamp;temperature;humidity
33139;DHT22;19501;50.948;5.316;2023-11-19T00:02:22;12.90;99.90
33139;DHT22;19501;50.948;5.316;2023-11-19T00:04:47;12.90;99.90
33139;DHT22;19501;50.948;5.316;2023-11-19T00:07:13;13.00;99.90
33139;DHT22;19501;50.948;5.316;2023-11-19T00:09:40;13.00;99.90
33139;DHT22;19501;50.948;5.316;2023-11-19T00:12:06;13.10;99.90
33139;DHT22;19501;50.948;5.316;2023-11-19T00:14:33;13.10;99.90
33139;DHT22;19501;50.948;5.316;2023-11-19T00:17:00;13.10;99.90
33139;DHT22;19501;50.948;5.316;2023-11-19T00:19:26;13.10;99.90
33139;DHT22;19501;50.948;5.316;2023-11-19T00:21:52;13.00;99.90
33139;DHT22;19501;50.948;5.316;2023-11-19T00:24:18;13.00;99.90
33139;DHT22;19501;50.948;5.316;2023-11-19T00:26:44;13.10;99.90
33139;DHT22;19501;50.948;5.316;2023-11-19T00:29:10;13.00;99.90
33139;DHT22;19501;50.948;5.316;2023-11-19T00:31:36;13.00;99.90
33139;DHT22;19501;50.948;5.316;2023-11-19T00:34:02;13.00;99.90
33139;DHT22;19501;50.948;5.316;2023-11-19T00:36:31;13.00;99.90
33139;DHT22;19501;50.948;5.316;2023-11-19T00:38:59;13.10;99.90
33139;DHT22;19501;50.948;5.316;2023-11-19T00:41:25;13.10;99.90
33139;DHT22;19501;50.948;5.316;2023-11-19T00:43:51;13.10;99.90
33139;DHT22;19501;50.948;5.316;2023-11-19T00:46:16;13.10;99.90
33139;DHT22;19501;50.948;5.316;2023-11-19T00:48:42;13.10;99.90
33139;DHT22;19501;50.948;5.316;2023-11-19T00:51:07;13.00;99.90
33139;DHT22;19501;50.948;5.316;2023-11-19T00:53:33;13.10;99.90
33139;DHT22;19501;50.948;5.316;2023-11-19T00:56:02;13.10;99.90
33139;DHT22;19501;50.948;5.316;2023-11-19T00:58:27;13.10;99.90
33139;DHT22;19501;50.948;5.316;2023-11-19T01:00:53;13.10;99.90
33139;DHT22;19501;50.948;5.316;2023-11-19T01:03:18;13.20;99.90
33139;DHT22;19501;50.948;5.316;2023-11-19T01:05:46;13.20;99.90
33139;DHT22;19501;50.948;5.316;2023-11-19T01:08:13;13.20;99.90
33139;DHT22;19501;50.948;5.316;2023-11-19T01:10:38;13.30;99.90
33139;DHT22;19501;50.948;5.316;2023-11-19T01:13:04;13.30;99.90
33139;DHT22;19501;50.948;5.316;2023-11-19T01:15:33;13.30;99.90
33139;DHT22;19501;50.948;5.316;2023-11-19T01:17:58;13.30;99.90
33139;DHT22;19501;50.948;5.316;2023-11-19T01:20:24;13.30;99.90
33139;DHT22;19501;50.948;5.316;2023-11-19T01:22:50;13.40;99.90
33139;DHT22;19501;50.948;5.316;2023-11-19T01:25:16;13.40;99.90
33139;DHT22;19501;50.948;5.316;2023-11-19T01:27:42;13.40;99.90
33139;DHT22;19501;50.948;5.316;2023-11-19T01:30:08;13.40;99.90
33139;DHT22;19501;50.948;5.316;2023-11-19T01:32:38;13.40;99.90
33139;DHT22;19501;50.948;5.316;2023-11-19T01:35:05;13.50;99.90
33139;DHT22;19501;50.948;5.316;2023-11-19T01:37:31;13.40;99.90
33139;DHT22;19501;50.948;5.316;2023-11-19T01:39:57;13.50;99.90
33139;DHT22;19501;50.948;5.316;2023-11-19T01:42:23;13.50;99.90
33139;DHT22;19501;50.948;5.316;2023-11-19T01:45:00;13.60;99.90
33139;DHT22;19501;50.948;5.316;2023-11-19T01:47:30;13.60;99.90
33139;DHT22;19501;50.948;5.316;2023-11-19T01:49:56;13.60;99.90
33139;DHT22;19501;50.948;5.316;2023-11-19T01:52:22;13.60;99.90
33139;DHT22;19501;50.948;5.316;2023-11-19T01:54:49;13.70;99.90
33139;DHT22;19501;50.948;5.316;2023-11-19T01:57:15;13.70;99.90
33139;DHT22;19501;50.948;5.316;2023-11-19T01:59:41;13.80;99.90
33139;DHT22;19501;50.948;5.316;2023-11-19T02:02:07;13.80;99.90
33139;DHT22;19501;50.948;5.316;2023-11-19T02:04:33;13.80;99.90
33139;DHT22;19501;50.948;5.316;2023-11-19T02:07:00;13.80;99.90
33139;DHT22;19501;50.948;5.316;2023-11-19T02:09:26;13.70;99.90
33139;DHT22;19501;50.948;5.316;2023-11-19T02:11:53;13.70;99.90
33139;DHT22;19501;50.948;5.316;2023-11-19T02:14:24;13.70;99.90
33139;DHT22;19501;50.948;5.316;2023-11-19T02:16:51;13.70;99.90
33139;DHT22;19501;50.948;5.316;2023-11-19T02:19:19;13.70;99.90
33139;DHT22;19501;50.948;5.316;2023-11-19T02:21:45;13.60;99.90
33139;DHT22;19501;50.948;5.316;2023-11-19T02:24:12;13.40;99.90
33139;DHT22;19501;50.948;5.316;2023-11-19T02:27:02;13.30;99.90
33139;DHT22;19501;50.948;5.316;2023-11-19T02:29:30;13.30;99.90
33139;DHT22;19501;50.948;5.316;2023-11-19T02:31:56;13.30;99.90
33139;DHT22;19501;50.948;5.316;2023-11-19T02:34:21;13.40;99.90
33139;DHT22;19501;50.948;5.316;2023-11-19T02:36:47;13.40;99.90
33139;DHT22;19501;50.948;5.316;2023-11-19T02:39:13;13.40;99.90
33139;DHT22;19501;50.948;5.316;2023-11-19T02:41:39;13.50;99.90
33139;DHT22;19501;50.948;5.316;2023-11-19T02:44:08;13.50;99.90
33139;DHT22;19501;50.948;5.316;2023-11-19T02:46:34;13.40;99.90
33139;DHT22;19501;50.948;5.316;2023-11-19T02:48:59;13.40;99.90
33139;DHT22;19501;50.948;5.316;2023-11-19T02:51:25;13.50;99.90
33139;DHT22;19501;50.948;5.316;2023-11-19T02:53:53;13.40;99.90
33139;DHT22;19501;50.948;5.316;2023-11-19T02:56:18;13.40;99.90
33139;DHT22;19501;50.948;5.316;2023-11-19T02:58:54;13.30;99.90
33139;DHT22;19501;50.948;5.316;2023-11-19T03:01:24;13.30;99.90
33139;DHT22;19501;50.948;5.316;2023-11-19T03:03:56;13.30;99.90
33139;DHT22;19501;50.948;5.316;2023-11-19T03:06:23;13.30;99.90
33139;DHT22;19501;50.948;5.316;2023-11-19T03:08:49;13.30;99.90
33139;DHT22;19501;50.948;5.316;2023-11-19T03:11:15;13.30;99.90
33139;DHT22;19501;50.948;5.316;2023-11-19T03:13:41;13.30;99.90
33139;DHT22;19501;50.948;5.316;2023-11-19T03:16:07;13.40;99.90
33139;DHT22;19501;50.948;5.316;2023-11-19T03:18:33;13.30;99.90
33139;DHT22;19501;50.948;5.316;2023-11-19T03:20:58;13.30;99.90
33139;DHT22;19501;50.948;5.316;2023-11-19T03:23:25;13.30;99.90
33139;DHT22;19501;50.948;5.316;2023-11-19T03:25:53;13.20;99.90
33139;DHT22;19501;50.948;5.316;2023-11-19T03:28:19;13.30;99.90
33139;DHT22;19501;50.948;5.316;2023-11-19T03:30:45;13.30;99.90
33139;DHT22;19501;50.948;5.316;2023-11-19T03:33:11;13.20;99.90
33139;DHT22;19501;50.948;5.316;2023-11-19T03:35:36;13.10;99.90
33139;DHT22;19501;50.948;5.316;2023-11-19T03:38:02;13.10;99.90
33139;DHT22;19501;50.948;5.316;2023-11-19T03:40:28;13.00;99.90
33139;DHT22;19501;50.948;5.316;2023-11-19T03:42:56;13.00;99.90
33139;DHT22;19501;50.948;5.316;2023-11-19T03:45:23;13.00;99.90
33139;DHT22;19501;50.948;5.316;2023-11-19T03:47:50;13.10;99.90
33139;DHT22;19501;50.948;5.316;2023-11-19T03:50:20;13.10;99.90
33139;DHT22;19501;50.948;5.316;2023-11-19T03:52:47;13.10;99.90
33139;DHT22;19501;50.948;5.316;2023-11-19T03:55:12;13.10;99.90
33139;DHT22;19501;50.948;5.316;2023-11-19T03:57:39;13.00;99.90
33139;DHT22;19501;50.948;5.316;2023-11-19T04:00:05;13.00;99.90
33139;DHT22;19501;50.948;5.316;2023-11-19T04:02:39;12.90;99.90
33139;DHT22;19501;50.948;5.316;2023-11-19T04:05:05;13.00;99.90
33139;DHT22;19501;50.948;5.316;2023-11-19T04:07:32;13.00;99.90
33139;DHT22;19501;50.948;5.316;2023-11-19T04:09:58;12.90;99.90
33139;DHT22;19501;50.948;5.316;2023-11-19T04:12:23;13.00;99.90
33139;DHT22;19501;50.948;5.316;2023-11-19T04:14:49;13.00;99.90
33139;DHT22;19501;50.948;5.316;2023-11-19T04:17:15;13.00;99.90
33139;DHT22;19501;50.948;5.316;2023-11-19T04:19:40;13.00;99.90
33139;DHT22;19501;50.948;5.316;2023-11-19T04:22:09;12.90;99.90
33139;DHT22;19501;50.948;5.316;2023-11-19T04:24:36;12.90;99.90
33139;DHT22;19501;50.948;5.316;2023-11-19T04:27:02;12.80;99.90
33139;DHT22;19501;50.948;5.316;2023-11-19T04:29:30;12.80;99.90
33139;DHT22;19501;50.948;5.316;2023-11-19T04:31:56;12.90;99.90
33139;DHT22;19501;50.948;5.316;2023-11-19T04:34:22;12.90;99.90
33139;DHT22;19501;50.948;5.316;2023-11-19T04:36:47;12.80;99.90
33139;DHT22;19501;50.948;5.316;2023-11-19T04:39:13;12.80;99.90
33139;DHT22;19501;50.948;5.316;2023-11-19T04:41:50;12.70;99.90
33139;DHT22;19501;50.948;5.316;2023-11-19T04:44:19;12.70;99.90
33139;DHT22;19501;50.948;5.316;2023-11-19T04:46:45;12.60;99.90
33139;DHT22;19501;50.948;5.316;2023-11-19T04:49:11;12.60;99.90
33139;DHT22;19501;50.948;5.316;2023-11-19T04:51:41;12.60;99.90
33139;DHT22;19501;50.948;5.316;2023-11-19T04:54:08;12.70;99.90
33139;DHT22;19501;50.948;5.316;2023-11-19T04:56:37;12.70;99.90
33139;DHT22;19501;50.948;5.316;2023-11-19T04:59:03;12.80;99.90
33139;DHT22;19501;50.948;5.316;2023-11-19T05:01:31;12.80;99.90
33139;DHT22;19501;50.948;5.316;2023-11-19T05:03:57;12.90;99.90
33139;DHT22;19501;50.948;5.316;2023-11-19T05:06:27;12.90;99.90
33139;DHT22;19501;50.948;5.316;2023-11-19T05:08:54;12.90;99.90
33139;DHT22;19501;50.948;5.316;2023-11-19T05:11:20;13.00;99.90
33139;DHT22;19501;50.948;5.316;2023-11-19T05:13:45;13.00;99.90
33139;DHT22;19501;50.948;5.316;2023-11-19T05:16:11;13.00;99.90
33139;DHT22;19501;50.948;5.316;2023-11-19T05:18:40;13.00;99.90
33139;DHT22;19501;50.948;5.316;2023-11-19T05:21:06;13.10;99.90
33139;DHT22;19501;50.948;5.316;2023-11-19T05:23:32;13.10;99.90
33139;DHT22;19501;50.948;5.316;2023-11-19T05:26:01;13.00;99.90
33139;DHT22;19501;50.948;5.316;2023-11-19T05:28:27;13.00;99.90
33139;DHT22;19501;50.948;5.316;2023-11-19T05:30:53;12.90;99.90
33139;DHT22;19501;50.948;5.316;2023-11-19T05:33:20;12.80;99.90
33139;DHT22;19501;50.948;5.316;2023-11-19T05:35:46;12.80;99.90
33139;DHT22;19501;50.948;5.316;2023-11-19T05:38:14;12.80;99.90
33139;DHT22;19501;50.948;5.316;2023-11-19T05:40:41;12.80;99.90
33139;DHT22;19501;50.948;5.316;2023-11-19T05:43:06;12.80;99.90
33139;DHT22;19501;50.948;5.316;2023-11-19T05:45:32;12.80;99.90
33139;DHT22;19501;50.948;5.316;2023-11-19T05:47:58;12.70;99.90
33139;DHT22;19501;50.948;5.316;2023-11-19T05:50:24;12.60;99.90
33139;DHT22;19501;50.948;5.316;2023-11-19T05:52:50;12.60;99.90
33139;DHT22;19501;50.948;5.316;2023-11-19T05:55:16;12.60;99.90
33139;DHT22;19501;50.948;5.316;2023-11-19T05:57:41;12.60;99.90
33139;DHT22;19501;50.948;5.316;2023-11-19T06:00:07;12.50;99.90
33139;DHT22;19501;50.948;5.316;2023-11-19T06:02:34;12.50;99.90
33139;DHT22;19501;50.948;5.316;2023-11-19T06:05:00;12.40;99.90
33139;DHT22;19501;50.948;5.316;2023-11-19T06:07:26;12.50;99.90
33139;DHT22;19501;50.948;5.316;2023-11-19T06:09:52;12.60;99.90
33139;DHT22;19501;50.948;5.316;2023-11-19T06:12:18;12.40;99.90
33139;DHT22;19501;50.948;5.316;2023-11-19T06:14:43;12.30;99.90
33139;DHT22;19501;50.948;5.316;2023-11-19T06:17:09;12.30;99.90
33139;DHT22;19501;50.948;5.316;2023-11-19T06:19:37;12.30;99.90
33139;DHT22;19501;50.948;5.316;2023-11-19T06:22:03;12.30;99.90
33139;DHT22;19501;50.948;5.316;2023-11-19T06:24:29;12.30;99.90
33139;DHT22;19501;50.948;5.316;2023-11-19T06:26:57;12.20;99.90
33139;DHT22;19501;50.948;5.316;2023-11-19T06:29:24;12.20;99.90
33139;DHT22;19501;50.948;5.316;2023-11-19T06:31:50;12.20;99.90
33139;DHT22;19501;50.948;5.316;2023-11-19T06:34:16;12.20;99.90
33139;DHT22;19501;50.948;5.316;2023-11-19T06:36:42;12.20;99.90
33139;DHT22;19501;50.948;5.316;2023-11-19T06:39:10;12.10;99.90
33139;DHT22;19501;50.948;5.316;2023-11-19T06:41:36;12.10;99.90
33139;DHT22;19501;50.948;5.316;2023-11-19T06:44:04;12.00;99.90
33139;DHT22;19501;50.948;5.316;2023-11-19T06:46:30;11.90;99.90
33139;DHT22;19501;50.948;5.316;2023-11-19T06:48:56;11.90;99.90
33139;DHT22;19501;50.948;5.316;2023-11-19T06:51:22;11.90;99.90
33139;DHT22;19501;50.948;5.316;2023-11-19T06:53:49;11.90;99.90
33139;DHT22;19501;50.948;5.316;2023-11-19T06:56:22;11.90;99.90
33139;DHT22;19501;50.948;5.316;2023-11-19T06:58:49;11.90;99.90
33139;DHT22;19501;50.948;5.316;2023-11-19T07:01:15;11.90;99.90
33139;DHT22;19501;50.948;5.316;2023-11-19T07:03:41;11.90;99.90
33139;DHT22;19501;50.948;5.316;2023-11-19T07:06:07;12.10;99.90
33139;DHT22;19501;50.948;5.316;2023-11-19T07:08:34;12.00;99.90
33139;DHT22;19501;50.948;5.316;2023-11-19T07:10:59;11.90;99.90
33139;DHT22;19501;50.948;5.316;2023-11-19T07:13:25;11.90;99.90
33139;DHT22;19501;50.948;5.316;2023-11-19T07:15:55;11.90;99.90
33139;DHT22;19501;50.948;5.316;2023-11-19T07:18:21;11.90;99.90
33139;DHT22;19501;50.948;5.316;2023-11-19T07:20:49;11.90;99.90
33139;DHT22;19501;50.948;5.316;2023-11-19T07:23:15;11.90;99.90
33139;DHT22;19501;50.948;5.316;2023-11-19T07:25:44;11.80;99.90
33139;DHT22;19501;50.948;5.316;2023-11-19T07:28:15;11.80;99.90
33139;DHT22;19501;50.948;5.316;2023-11-19T07:30:42;11.80;99.90
33139;DHT22;19501;50.948;5.316;2023-11-19T07:33:07;11.70;99.90
33139;DHT22;19501;50.948;5.316;2023-11-19T07:35:33;11.70;99.90
33139;DHT22;19501;50.948;5.316;2023-11-19T07:37:59;11.80;99.90
33139;DHT22;19501;50.948;5.316;2023-11-19T07:40:25;11.80;99.90
33139;DHT22;19501;50.948;5.316;2023-11-19T07:42:51;11.80;99.90
33139;DHT22;19501;50.948;5.316;2023-11-19T07:45:17;11.80;99.90
33139;DHT22;19501;50.948;5.316;2023-11-19T07:47:43;11.80;99.90
33139;DHT22;19501;50.948;5.316;2023-11-19T07:50:10;11.90;99.90
33139;DHT22;19501;50.948;5.316;2023-11-19T07:52:38;11.90;99.90
33139;DHT22;19501;50.948;5.316;2023-11-19T07:55:04;11.90;99.90
33139;DHT22;19501;50.948;5.316;2023-11-19T07:57:33;11.90;99.90
33139;DHT22;19501;50.948;5.316;2023-11-19T07:59:58;11.90;99.90
33139;DHT22;19501;50.948;5.316;2023-11-19T08:02:24;11.90;99.90
33139;DHT22;19501;50.948;5.316;2023-11-19T08:04:52;11.90;99.90
33139;DHT22;19501;50.948;5.316;2023-11-19T08:07:20;11.90;99.90
33139;DHT22;19501;50.948;5.316;2023-11-19T08:09:46;11.90;99.90
33139;DHT22;19501;50.948;5.316;2023-11-19T08:12:12;11.90;99.90
33139;DHT22;19501;50.948;5.316;2023-11-19T08:14:40;11.90;99.90
33139;DHT22;19501;50.948;5.316;2023-11-19T08:17:05;12.00;99.90
33139;DHT22;19501;50.948;5.316;2023-11-19T08:19:34;12.00;99.90
33139;DHT22;19501;50.948;5.316;2023-11-19T08:21:59;12.00;99.90
33139;DHT22;19501;50.948;5.316;2023-11-19T08:24:27;12.10;99.90
33139;DHT22;19501;50.948;5.316;2023-11-19T08:26:53;12.10;99.90
33139;DHT22;19501;50.948;5.316;2023-11-19T08:29:21;12.20;99.90
33139;DHT22;19501;50.948;5.316;2023-11-19T08:31:47;12.10;99.90
33139;DHT22;19501;50.948;5.316;2023-11-19T08:34:15;12.30;99.90
33139;DHT22;19501;50.948;5.316;2023-11-19T08:36:41;12.30;99.90
33139;DHT22;19501;50.948;5.316;2023-11-19T08:39:06;12.40;99.90
33139;DHT22;19501;50.948;5.316;2023-11-19T08:41:34;12.40;99.90
33139;DHT22;19501;50.948;5.316;2023-11-19T08:44:00;12.50;99.90
33139;DHT22;19501;50.948;5.316;2023-11-19T08:46:25;12.60;99.90
33139;DHT22;19501;50.948;5.316;2023-11-19T08:48:51;12.60;99.90
33139;DHT22;19501;50.948;5.316;2023-11-19T08:51:17;12.60;99.90
33139;DHT22;19501;50.948;5.316;2023-11-19T08:53:43;12.60;99.90
33139;DHT22;19501;50.948;5.316;2023-11-19T08:56:08;12.60;99.90
33139;DHT22;19501;50.948;5.316;2023-11-19T08:58:34;12.60;99.90
33139;DHT22;19501;50.948;5.316;2023-11-19T09:01:00;12.60;99.90
33139;DHT22;19501;50.948;5.316;2023-11-19T09:03:26;12.70;99.90
33139;DHT22;19501;50.948;5.316;2023-11-19T09:05:52;12.60;99.90
33139;DHT22;19501;50.948;5.316;2023-11-19T09:08:18;12.60;99.90
33139;DHT22;19501;50.948;5.316;2023-11-19T09:10:43;12.60;99.90
33139;DHT22;19501;50.948;5.316;2023-11-19T09:13:09;12.60;99.90
33139;DHT22;19501;50.948;5.316;2023-11-19T09:15:34;12.60;99.90
33139;DHT22;19501;50.948;5.316;2023-11-19T09:18:00;12.70;99.90
33139;DHT22;19501;50.948;5.316;2023-11-19T09:20:26;12.70;99.90
33139;DHT22;19501;50.948;5.316;2023-11-19T09:22:54;12.80;99.90
33139;DHT22;19501;50.948;5.316;2023-11-19T09:25:19;12.80;99.90
33139;DHT22;19501;50.948;5.316;2023-11-19T09:27:45;12.80;99.90
33139;DHT22;19501;50.948;5.316;2023-11-19T09:30:13;12.90;99.90
33139;DHT22;19501;50.948;5.316;2023-11-19T09:32:39;13.00;99.90
33139;DHT22;19501;50.948;5.316;2023-11-19T09:35:05;13.00;99.90
33139;DHT22;19501;50.948;5.316;2023-11-19T09:37:35;13.00;99.90
33139;DHT22;19501;50.948;5.316;2023-11-19T09:40:01;13.10;99.90
33139;DHT22;19501;50.948;5.316;2023-11-19T09:42:26;13.10;99.90
33139;DHT22;19501;50.948;5.316;2023-11-19T09:44:53;13.10;99.90
33139;DHT22;19501;50.948;5.316;2023-11-19T09:47:20;13.20;99.90
33139;DHT22;19501;50.948;5.316;2023-11-19T09:49:46;13.30;99.90
33139;DHT22;19501;50.948;5.316;2023-11-19T09:52:13;13.30;99.90
33139;DHT22;19501;50.948;5.316;2023-11-19T09:54:39;12.70;99.90
33139;DHT22;19501;50.948;5.316;2023-11-19T09:57:06;12.40;99.90
33139;DHT22;19501;50.948;5.316;2023-11-19T09:59:33;12.30;99.90
33139;DHT22;19501;50.948;5.316;2023-11-19T10:01:59;12.20;99.90
33139;DHT22;19501;50.948;5.316;2023-11-19T10:04:29;12.20;99.90
33139;DHT22;19501;50.948;5.316;2023-11-19T10:06:55;12.20;99.90
33139;DHT22;19501;50.948;5.316;2023-11-19T10:09:21;12.30;99.90
33139;DHT22;19501;50.948;5.316;2023-11-19T10:11:46;12.60;99.90
33139;DHT22;19501;50.948;5.316;2023-11-19T10:14:13;12.80;99.90
33139;DHT22;19501;50.948;5.316;2023-11-19T10:16:40;13.00;99.90
33139;DHT22;19501;50.948;5.316;2023-11-19T10:19:06;13.30;99.90
33139;DHT22;19501;50.948;5.316;2023-11-19T10:21:33;13.30;99.90
33139;DHT22;19501;50.948;5.316;2023-11-19T10:23:59;13.40;99.90
33139;DHT22;19501;50.948;5.316;2023-11-19T10:26:28;13.50;99.90
33139;DHT22;19501;50.948;5.316;2023-11-19T10:28:55;13.40;99.90
33139;DHT22;19501;50.948;5.316;2023-11-19T10:31:21;13.50;99.90
33139;DHT22;19501;50.948;5.316;2023-11-19T10:33:50;13.60;99.90
33139;DHT22;19501;50.948;5.316;2023-11-19T10:36:17;13.70;99.90
33139;DHT22;19501;50.948;5.316;2023-11-19T10:38:53;13.60;99.90
33139;DHT22;19501;50.948;5.316;2023-11-19T10:41:29;13.80;99.90
33139;DHT22;19501;50.948;5.316;2023-11-19T10:43:56;13.80;99.90
33139;DHT22;19501;50.948;5.316;2023-11-19T10:46:21;13.60;99.90
33139;DHT22;19501;50.948;5.316;2023-11-19T10:48:49;13.60;99.90
33139;DHT22;19501;50.948;5.316;2023-11-19T10:51:19;13.70;99.90
33139;DHT22;19501;50.948;5.316;2023-11-19T10:53:49;13.40;99.90
33139;DHT22;19501;50.948;5.316;2023-11-19T10:56:16;13.50;99.90
33139;DHT22;19501;50.948;5.316;2023-11-19T10:58:45;13.60;99.90
33139;DHT22;19501;50.948;5.316;2023-11-19T11:01:18;13.60;99.90
33139;DHT22;19501;50.948;5.316;2023-11-19T11:03:46;13.70;99.90
33139;DHT22;19501;50.948;5.316;2023-11-19T11:06:13;13.90;99.90
33139;DHT22;19501;50.948;5.316;2023-11-19T11:08:39;14.00;99.90
33139;DHT22;19501;50.948;5.316;2023-11-19T11:11:06;14.10;99.90
33139;DHT22;19501;50.948;5.316;2023-11-19T11:13:37;13.90;99.90
33139;DHT22;19501;50.948;5.316;2023-11-19T11:16:05;14.00;99.90
33139;DHT22;19501;50.948;5.316;2023-11-19T11:18:35;13.90;99.90
33139;DHT22;19501;50.948;5.316;2023-11-19T11:21:08;13.80;99.90
33139;DHT22;19501;50.948;5.316;2023-11-19T11:37:49;13.20;99.90
33139;DHT22;19501;50.948;5.316;2023-11-19T11:40:18;13.00;99.90
33139;DHT22;19501;50.948;5.316;2023-11-19T11:42:47;12.80;99.90
33139;DHT22;19501;50.948;5.316;2023-11-19T11:45:14;12.80;99.90
33139;DHT22;19501;50.948;5.316;2023-11-19T11:50:17;12.60;99.90
33139;DHT22;19501;50.948;5.316;2023-11-19T11:57:50;12.70;99.90
33139;DHT22;19501;50.948;5.316;2023-11-19T12:00:32;12.70;99.90
33139;DHT22;19501;50.948;5.316;2023-11-19T12:03:00;12.70;99.90
33139;DHT22;19501;50.948;5.316;2023-11-19T12:05:26;12.90;99.90
33139;DHT22;19501;50.948;5.316;2023-11-19T12:07:56;13.10;99.90
33139;DHT22;19501;50.948;5.316;2023-11-19T12:10:25;13.10;99.90
33139;DHT22;19501;50.948;5.316;2023-11-19T12:12:58;13.20;99.90
33139;DHT22;19501;50.948;5.316;2023-11-19T12:15:25;13.40;99.90
33139;DHT22;19501;50.948;5.316;2023-11-19T12:17:53;13.40;99.90
33139;DHT22;19501;50.948;5.316;2023-11-19T12:20:24;13.60;99.90
33139;DHT22;19501;50.948;5.316;2023-11-19T12:22:50;13.80;99.90
33139;DHT22;19501;50.948;5.316;2023-11-19T12:25:19;13.90;99.90
33139;DHT22;19501;50.948;5.316;2023-11-19T12:27:50;14.00;99.90
33139;DHT22;19501;50.948;5.316;2023-11-19T12:30:23;14.00;99.90
33139;DHT22;19501;50.948;5.316;2023-11-19T12:32:49;14.20;99.90
33139;DHT22;19501;50.948;5.316;2023-11-19T12:35:16;14.40;99.90
33139;DHT22;19501;50.948;5.316;2023-11-19T12:37:46;14.30;99.90
33139;DHT22;19501;50.948;5.316;2023-11-19T12:40:20;14.50;99.90
33139;DHT22;19501;50.948;5.316;2023-11-19T12:42:50;14.70;99.90
33139;DHT22;19501;50.948;5.316;2023-11-19T12:45:15;14.80;99.90
33139;DHT22;19501;50.948;5.316;2023-11-19T12:47:42;14.60;99.90
33139;DHT22;19501;50.948;5.316;2023-11-19T12:50:09;14.50;99.90
33139;DHT22;19501;50.948;5.316;2023-11-19T12:52:36;14.30;99.90
33139;DHT22;19501;50.948;5.316;2023-11-19T12:55:24;14.00;99.90
33139;DHT22;19501;50.948;5.316;2023-11-19T12:57:49;13.90;99.90
33139;DHT22;19501;50.948;5.316;2023-11-19T13:00:22;13.90;99.90
33139;DHT22;19501;50.948;5.316;2023-11-19T13:02:52;13.90;99.90
33139;DHT22;19501;50.948;5.316;2023-11-19T13:05:34;13.90;99.90
33139;DHT22;19501;50.948;5.316;2023-11-19T13:08:10;13.90;99.90
33139;DHT22;19501;50.948;5.316;2023-11-19T13:10:52;13.90;99.90
33139;DHT22;19501;50.948;5.316;2023-11-19T13:13:21;13.70;99.90
33139;DHT22;19501;50.948;5.316;2023-11-19T13:15:47;13.60;99.90
33139;DHT22;19501;50.948;5.316;2023-11-19T13:18:16;13.50;99.90
33139;DHT22;19501;50.948;5.316;2023-11-19T13:20:41;13.40;99.90
33139;DHT22;19501;50.948;5.316;2023-11-19T13:23:08;13.40;99.90
33139;DHT22;19501;50.948;5.316;2023-11-19T13:25:33;13.30;99.90
33139;DHT22;19501;50.948;5.316;2023-11-19T13:27:59;13.30;99.90
33139;DHT22;19501;50.948;5.316;2023-11-19T13:30:25;13.40;99.90
33139;DHT22;19501;50.948;5.316;2023-11-19T13:32:52;13.40;99.90
33139;DHT22;19501;50.948;5.316;2023-11-19T13:35:18;13.50;99.90
33139;DHT22;19501;50.948;5.316;2023-11-19T13:37:45;13.40;99.90
33139;DHT22;19501;50.948;5.316;2023-11-19T13:40:12;13.70;99.90
33139;DHT22;19501;50.948;5.316;2023-11-19T13:42:44;14.00;99.90
33139;DHT22;19501;50.948;5.316;2023-11-19T13:45:13;13.70;99.90
33139;DHT22;19501;50.948;5.316;2023-11-19T13:47:43;13.50;99.90
33139;DHT22;19501;50.948;5.316;2023-11-19T13:50:16;13.40;99.90
33139;DHT22;19501;50.948;5.316;2023-11-19T13:52:44;13.30;99.90
33139;DHT22;19501;50.948;5.316;2023-11-19T13:55:12;13.50;99.90
33139;DHT22;19501;50.948;5.316;2023-11-19T13:57:39;13.60;99.90
33139;DHT22;19501;50.948;5.316;2023-11-19T14:00:07;13.60;99.90
33139;DHT22;19501;50.948;5.316;2023-11-19T14:02:41;13.50;99.90
33139;DHT22;19501;50.948;5.316;2023-11-19T14:05:07;13.40;99.90
33139;DHT22;19501;50.948;5.316;2023-11-19T14:07:33;13.50;99.90
33139;DHT22;19501;50.948;5.316;2023-11-19T14:09:59;13.50;99.90
33139;DHT22;19501;50.948;5.316;2023-11-19T14:12:25;13.40;99.90
33139;DHT22;19501;50.948;5.316;2023-11-19T14:14:51;13.30;99.90
33139;DHT22;19501;50.948;5.316;2023-11-19T14:17:18;13.20;99.90
33139;DHT22;19501;50.948;5.316;2023-11-19T14:19:44;13.20;99.90
33139;DHT22;19501;50.948;5.316;2023-11-19T14:22:12;13.20;99.90
33139;DHT22;19501;50.948;5.316;2023-11-19T14:24:38;13.20;99.90
33139;DHT22;19501;50.948;5.316;2023-11-19T14:27:06;13.20;99.90
33139;DHT22;19501;50.948;5.316;2023-11-19T14:29:31;13.10;99.90
33139;DHT22;19501;50.948;5.316;2023-11-19T14:31:57;13.00;99.90
33139;DHT22;19501;50.948;5.316;2023-11-19T14:34:24;12.90;99.90
33139;DHT22;19501;50.948;5.316;2023-11-19T14:36:51;12.90;99.90
33139;DHT22;19501;50.948;5.316;2023-11-19T14:39:17;13.00;99.90
33139;DHT22;19501;50.948;5.316;2023-11-19T14:41:43;12.90;99.90
33139;DHT22;19501;50.948;5.316;2023-11-19T14:44:12;12.90;99.90
33139;DHT22;19501;50.948;5.316;2023-11-19T14:46:38;13.00;99.90
33139;DHT22;19501;50.948;5.316;2023-11-19T14:49:03;12.90;99.90
33139;DHT22;19501;50.948;5.316;2023-11-19T14:51:30;12.90;99.90
33139;DHT22;19501;50.948;5.316;2023-11-19T14:53:55;12.90;99.90
33139;DHT22;19501;50.948;5.316;2023-11-19T14:56:21;13.00;99.90
33139;DHT22;19501;50.948;5.316;2023-11-19T14:58:47;13.10;99.90
33139;DHT22;19501;50.948;5.316;2023-11-19T15:01:14;13.20;99.90
33139;DHT22;19501;50.948;5.316;2023-11-19T15:03:40;13.20;99.90
33139;DHT22;19501;50.948;5.316;2023-11-19T15:06:06;13.20;99.90
33139;DHT22;19501;50.948;5.316;2023-11-19T15:08:32;13.10;99.90
33139;DHT22;19501;50.948;5.316;2023-11-19T15:10:58;13.10;99.90
33139;DHT22;19501;50.948;5.316;2023-11-19T15:13:25;13.10;99.90
33139;DHT22;19501;50.948;5.316;2023-11-19T15:15:50;13.10;99.90
33139;DHT22;19501;50.948;5.316;2023-11-19T15:18:18;13.00;99.90
33139;DHT22;19501;50.948;5.316;2023-11-19T15:20:44;12.80;99.90
33139;DHT22;19501;50.948;5.316;2023-11-19T15:23:13;12.80;99.90
33139;DHT22;19501;50.948;5.316;2023-11-19T15:25:39;12.90;99.90
33139;DHT22;19501;50.948;5.316;2023-11-19T15:28:05;13.00;99.90
33139;DHT22;19501;50.948;5.316;2023-11-19T15:30:31;13.10;99.90
33139;DHT22;19501;50.948;5.316;2023-11-19T15:32:56;13.00;99.90
33139;DHT22;19501;50.948;5.316;2023-11-19T15:35:22;13.00;99.90
33139;DHT22;19501;50.948;5.316;2023-11-19T15:37:48;13.00;99.90
33139;DHT22;19501;50.948;5.316;2023-11-19T15:40:14;13.00;99.90
33139;DHT22;19501;50.948;5.316;2023-11-19T15:42:40;13.00;99.90
33139;DHT22;19501;50.948;5.316;2023-11-19T15:45:06;13.00;99.90
33139;DHT22;19501;50.948;5.316;2023-11-19T15:47:35;13.10;99.90
33139;DHT22;19501;50.948;5.316;2023-11-19T15:50:02;13.10;99.90
33139;DHT22;19501;50.948;5.316;2023-11-19T15:52:31;13.10;99.90